Time;durP1;ratioP1;P1;durP2;ratioP2;P2;SDS_P1;SDS_P2;PMS_P1;PMS_P2;Temp;Humidity;BMP_temperature;BMP_pressure;BME280_temperature;BME280_humidity;BME280_pressure;Samples;Min_cycle;Max_cycle;Signal;HPM_P1;HPM_P2
2021/07/05 00:01:19;;;;;;;25.90;21.65;;;16.70;99.90;;;;;;5009149;28;25079;-64
2021/07/05 00:03:45;;;;;;;27.98;22.25;;;16.70;99.90;;;;;;5003532;28;25093;-64
2021/07/05 00:06:11;;;;;;;31.50;20.63;;;16.70;99.90;;;;;;5008675;28;25087;-64
2021/07/05 00:08:36;;;;;;;19.13;17.17;;;16.70;99.90;;;;;;5008569;28;25056;-62
2021/07/05 00:11:02;;;;;;;18.00;16.30;;;16.60;99.90;;;;;;5010130;28;25058;-64
2021/07/05 00:13:28;;;;;;;14.80;11.00;;;16.60;99.90;;;;;;5007521;28;25057;-62
2021/07/05 00:15:54;;;;;;;17.67;12.63;;;16.50;99.90;;;;;;5008514;28;25060;-63
2021/07/05 00:18:21;;;;;;;16.95;13.98;;;16.50;99.90;;;;;;5007360;28;25081;-63
2021/07/05 00:20:46;;;;;;;16.17;14.52;;;16.50;99.90;;;;;;5007606;28;25087;-63
2021/07/05 00:23:12;;;;;;;19.63;16.50;;;16.60;99.90;;;;;;5007217;28;25092;-62
2021/07/05 00:25:38;;;;;;;17.30;15.80;;;16.70;99.90;;;;;;5006997;28;25077;-62
2021/07/05 00:28:04;;;;;;;19.23;17.23;;;16.60;99.90;;;;;;5007666;28;25059;-63
2021/07/05 00:30:30;;;;;;;18.33;16.73;;;16.60;99.90;;;;;;5008858;28;25058;-63
2021/07/05 00:32:56;;;;;;;21.25;16.25;;;16.60;99.90;;;;;;5009534;28;25068;-62
2021/07/05 00:35:23;;;;;;;20.10;18.08;;;16.60;99.90;;;;;;5007301;28;25074;-62
2021/07/05 00:37:49;;;;;;;21.20;17.00;;;16.60;99.90;;;;;;5008883;28;25080;-63
2021/07/05 00:40:16;;;;;;;19.35;16.50;;;16.40;99.90;;;;;;5016995;28;25054;-63
2021/07/05 00:42:42;;;;;;;19.05;16.15;;;16.20;99.90;;;;;;5009054;28;25073;-63
2021/07/05 00:45:09;;;;;;;19.58;16.38;;;16.20;99.90;;;;;;5005904;28;25110;-63
2021/07/05 00:47:35;;;;;;;19.45;17.48;;;16.10;99.90;;;;;;5008492;28;25079;-64
2021/07/05 00:50:01;;;;;;;20.45;18.27;;;16.10;99.90;;;;;;5003279;28;25074;-63
2021/07/05 00:52:27;;;;;;;25.77;18.98;;;16.10;99.90;;;;;;5011514;28;25120;-63
2021/07/05 00:54:53;;;;;;;23.90;17.17;;;16.10;99.90;;;;;;5010341;28;25128;-63
2021/07/05 00:57:24;;;;;;;22.27;17.85;;;16.10;99.90;;;;;;5006472;28;25063;-63
2021/07/05 00:59:52;;;;;;;21.23;18.35;;;16.10;99.90;;;;;;4999338;28;25100;-63
2021/07/05 01:02:19;;;;;;;19.00;17.30;;;16.10;99.90;;;;;;5006680;28;25071;-62
2021/07/05 01:04:45;;;;;;;19.05;17.10;;;16.10;99.90;;;;;;5009368;28;25066;-63
2021/07/05 01:07:12;;;;;;;19.27;17.60;;;16.00;99.90;;;;;;5008064;28;25079;-63
2021/07/05 01:09:37;;;;;;;26.27;17.95;;;16.00;99.90;;;;;;5008245;28;25159;-64
2021/07/05 01:12:04;;;;;;;24.30;18.85;;;16.10;99.90;;;;;;5007610;28;25081;-63
2021/07/05 01:14:30;;;;;;;22.63;19.42;;;16.00;99.90;;;;;;5008957;28;25066;-63
2021/07/05 01:16:56;;;;;;;21.30;19.00;;;16.00;99.90;;;;;;5008356;28;25109;-63
2021/07/05 01:19:22;;;;;;;21.30;18.92;;;16.00;99.90;;;;;;5007308;28;25064;-63
2021/07/05 01:21:47;;;;;;;19.90;18.00;;;16.10;99.90;;;;;;5008973;28;25077;-64
2021/07/05 01:24:13;;;;;;;24.27;18.38;;;16.10;99.90;;;;;;5005903;28;25067;-63
2021/07/05 01:26:38;;;;;;;25.55;19.75;;;16.00;99.90;;;;;;5006721;28;25113;-64
2021/07/05 01:29:04;;;;;;;22.45;18.13;;;16.00;99.90;;;;;;5008815;28;25126;-64
2021/07/05 01:31:30;;;;;;;20.25;18.75;;;16.00;99.90;;;;;;5009594;28;25117;-64
2021/07/05 01:33:55;;;;;;;19.95;18.23;;;16.00;99.90;;;;;;5007407;28;25060;-64
2021/07/05 01:36:22;;;;;;;22.38;18.38;;;16.00;99.90;;;;;;5007837;28;25066;-63
2021/07/05 01:38:51;;;;;;;22.65;20.42;;;16.00;99.90;;;;;;5006797;28;25098;-64
2021/07/05 01:41:18;;;;;;;21.92;20.13;;;16.10;99.90;;;;;;5008821;28;25080;-63
2021/07/05 01:43:44;;;;;;;21.23;19.73;;;16.10;99.90;;;;;;5007411;28;25100;-63
2021/07/05 01:46:10;;;;;;;20.58;19.05;;;16.00;99.90;;;;;;5009420;28;25100;-65
2021/07/05 01:48:35;;;;;;;22.02;19.95;;;16.10;99.90;;;;;;5008264;28;25149;-64
2021/07/05 01:51:01;;;;;;;21.27;19.45;;;16.00;99.90;;;;;;5008064;28;25056;-64
2021/07/05 01:53:27;;;;;;;21.92;20.08;;;16.00;99.90;;;;;;5007518;28;25093;-64
2021/07/05 01:55:53;;;;;;;22.75;20.50;;;16.00;99.90;;;;;;5006351;28;25070;-64
2021/07/05 01:58:20;;;;;;;27.58;21.83;;;16.00;99.90;;;;;;5006615;28;25079;-65
2021/07/05 02:00:46;;;;;;;23.95;20.92;;;16.00;99.90;;;;;;5007325;28;25071;-64
2021/07/05 02:03:14;;;;;;;24.65;21.23;;;16.00;99.90;;;;;;5006991;28;25064;-63
2021/07/05 02:05:39;;;;;;;22.52;20.30;;;16.00;99.90;;;;;;5004810;28;25089;-64
2021/07/05 02:08:05;;;;;;;22.17;19.67;;;16.00;99.90;;;;;;5002073;28;25077;-66
2021/07/05 02:10:34;;;;;;;20.70;18.98;;;15.90;99.90;;;;;;5003405;28;25074;-63
2021/07/05 02:13:03;;;;;;;23.48;19.77;;;15.90;99.90;;;;;;4996621;28;25064;-63
2021/07/05 02:15:29;;;;;;;22.77;19.60;;;16.00;99.90;;;;;;4996567;28;25088;-65
2021/07/05 02:17:54;;;;;;;21.17;19.17;;;15.90;99.90;;;;;;5000192;28;25098;-64
2021/07/05 02:20:24;;;;;;;22.33;19.48;;;15.90;99.90;;;;;;4997711;28;25076;-64
2021/07/05 02:22:51;;;;;;;22.75;19.50;;;15.80;99.90;;;;;;5000091;28;25055;-64
2021/07/05 02:25:19;;;;;;;21.02;18.83;;;15.70;99.90;;;;;;4997092;28;25077;-63
2021/07/05 02:27:46;;;;;;;20.20;18.25;;;15.70;99.90;;;;;;4993663;28;25055;-65
2021/07/05 02:30:15;;;;;;;23.88;18.55;;;15.70;99.90;;;;;;4990692;28;25055;-65
2021/07/05 02:32:41;;;;;;;18.73;17.27;;;15.70;99.90;;;;;;5002992;28;25145;-65
2021/07/05 02:35:10;;;;;;;19.05;17.15;;;15.70;99.90;;;;;;5005195;28;25114;-66
2021/07/05 02:37:36;;;;;;;17.50;15.75;;;15.60;99.90;;;;;;5004606;28;25053;-65
2021/07/05 02:40:09;;;;;;;18.90;16.85;;;15.50;99.90;;;;;;5003300;28;25064;-64
2021/07/05 02:42:35;;;;;;;18.40;16.48;;;15.50;99.90;;;;;;5003246;28;25085;-64
2021/07/05 02:45:03;;;;;;;19.55;17.55;;;15.60;99.90;;;;;;5006959;28;25117;-64
2021/07/05 02:47:29;;;;;;;17.83;16.08;;;15.50;99.90;;;;;;5005305;28;25137;-64
2021/07/05 02:49:54;;;;;;;24.27;18.30;;;15.40;99.90;;;;;;5004387;28;25122;-64
2021/07/05 02:52:20;;;;;;;23.92;18.15;;;15.30;99.90;;;;;;5006751;28;25092;-65
2021/07/05 02:54:45;;;;;;;21.02;18.98;;;15.40;99.90;;;;;;5006237;28;25061;-64
2021/07/05 02:57:28;;;;;;;20.05;17.55;;;15.40;99.90;;;;;;5007752;28;25103;-63
2021/07/05 03:00:00;;;;;;;19.80;17.48;;;15.40;99.90;;;;;;5005826;28;25074;-66
2021/07/05 03:02:26;;;;;;;17.33;15.40;;;15.40;99.90;;;;;;5008496;28;25133;-64
2021/07/05 03:04:52;;;;;;;17.98;16.27;;;15.30;99.90;;;;;;5008861;28;25132;-64
2021/07/05 03:07:17;;;;;;;16.60;14.85;;;15.30;99.90;;;;;;5009291;28;25077;-62
2021/07/05 03:09:42;;;;;;;19.63;16.70;;;15.20;99.90;;;;;;5009274;28;25107;-63
2021/07/05 03:12:11;;;;;;;20.73;16.30;;;15.20;99.90;;;;;;5005400;28;25142;-64
2021/07/05 03:14:36;;;;;;;20.33;14.73;;;15.20;99.90;;;;;;5008426;28;25128;-64
2021/07/05 03:17:02;;;;;;;18.95;17.10;;;15.20;99.90;;;;;;5009289;28;25102;-65
2021/07/05 03:19:28;;;;;;;19.73;17.63;;;15.20;99.90;;;;;;5008629;28;25066;-64
2021/07/05 03:21:54;;;;;;;18.98;16.85;;;15.20;99.90;;;;;;5014878;28;25141;-65
2021/07/05 03:24:19;;;;;;;18.13;16.33;;;15.20;99.90;;;;;;5009083;28;25074;-65
2021/07/05 03:26:45;;;;;;;28.48;17.50;;;15.20;99.90;;;;;;5010234;28;25060;-63
2021/07/05 03:29:10;;;;;;;21.73;18.83;;;15.20;99.90;;;;;;5010354;28;25113;-63
2021/07/05 03:31:36;;;;;;;21.60;19.42;;;15.20;99.90;;;;;;5009568;28;25073;-64
2021/07/05 03:34:01;;;;;;;22.45;19.52;;;15.20;99.90;;;;;;5010187;28;25176;-64
2021/07/05 03:38:52;;;;;;;17.20;15.20;;;15.20;99.90;;;;;;5023012;22;25143;-63
2021/07/05 03:41:18;;;;;;;20.10;16.83;;;15.20;99.90;;;;;;5010507;28;25131;-64
2021/07/05 03:43:44;;;;;;;20.85;18.55;;;15.20;99.90;;;;;;5015318;28;25090;-63
2021/07/05 03:46:10;;;;;;;18.98;15.55;;;15.20;99.90;;;;;;5021997;28;25085;-64
2021/07/05 03:48:36;;;;;;;22.23;15.27;;;15.20;99.90;;;;;;5018858;28;25073;-63
2021/07/05 03:51:02;;;;;;;17.77;15.15;;;15.30;99.90;;;;;;5016712;28;25143;-64
2021/07/05 03:53:27;;;;;;;27.30;14.40;;;15.20;99.90;;;;;;5007219;28;25062;-64
2021/07/05 03:55:53;;;;;;;20.80;12.93;;;15.20;99.90;;;;;;4996189;28;25061;-65
2021/07/05 03:58:19;;;;;;;22.17;14.40;;;15.10;99.90;;;;;;5002472;28;25065;-63
2021/07/05 04:00:45;;;;;;;20.45;13.20;;;15.00;99.90;;;;;;5005121;28;25047;-63
2021/07/05 04:03:11;;;;;;;20.20;15.93;;;15.00;99.90;;;;;;5003513;28;25154;-62
2021/07/05 04:05:37;;;;;;;21.60;16.38;;;15.00;99.90;;;;;;4998547;28;25102;-63
2021/07/05 04:08:04;;;;;;;21.10;16.98;;;15.00;99.90;;;;;;4993220;28;25087;-63
2021/07/05 04:10:31;;;;;;;17.10;15.00;;;15.10;99.90;;;;;;5006793;28;25085;-63
2021/07/05 04:12:58;;;;;;;22.15;15.63;;;15.10;99.90;;;;;;5008125;28;25062;-63
2021/07/05 04:15:24;;;;;;;19.77;13.38;;;15.00;99.90;;;;;;5009643;28;25087;-62
2021/07/05 04:17:50;;;;;;;20.13;13.27;;;14.90;99.90;;;;;;5008881;28;25071;-61
2021/07/05 04:20:19;;;;;;;18.45;15.38;;;14.90;99.90;;;;;;5002589;28;25083;-63
2021/07/05 04:22:45;;;;;;;20.77;13.88;;;15.00;99.90;;;;;;5012374;28;25083;-63
2021/07/05 04:25:12;;;;;;;20.20;13.80;;;14.90;99.90;;;;;;5000840;28;25127;-63
2021/07/05 04:27:38;;;;;;;22.67;13.50;;;15.00;99.90;;;;;;5000704;28;25147;-63
2021/07/05 04:30:05;;;;;;;21.08;13.70;;;14.90;99.90;;;;;;5007687;28;25060;-62
2021/07/05 04:32:31;;;;;;;23.10;15.48;;;14.90;99.90;;;;;;5007490;28;25068;-63
2021/07/05 04:34:56;;;;;;;22.60;13.27;;;15.00;99.90;;;;;;5005927;28;25065;-62
2021/07/05 04:37:23;;;;;;;22.42;13.88;;;14.90;99.90;;;;;;5021910;28;25060;-64
2021/07/05 04:39:49;;;;;;;19.42;13.88;;;14.90;99.90;;;;;;5005977;28;25107;-63
2021/07/05 04:42:14;;;;;;;18.20;12.77;;;15.00;99.90;;;;;;4991040;28;25176;-63
2021/07/05 04:44:41;;;;;;;16.63;11.48;;;15.00;99.90;;;;;;4998851;28;25069;-62
2021/07/05 04:47:06;;;;;;;17.17;12.27;;;14.90;99.90;;;;;;4999482;28;25111;-62
2021/07/05 04:49:32;;;;;;;21.40;12.30;;;14.80;99.90;;;;;;5009382;28;25097;-63
2021/07/05 04:51:58;;;;;;;18.50;12.80;;;14.90;99.90;;;;;;5009323;28;25091;-65
2021/07/05 04:54:25;;;;;;;20.83;13.10;;;14.90;99.90;;;;;;5008256;28;25142;-63
2021/07/05 04:56:50;;;;;;;23.58;12.13;;;14.90;99.90;;;;;;5011700;28;25066;-63
2021/07/05 04:59:16;;;;;;;17.20;13.50;;;14.80;99.90;;;;;;5010121;28;25132;-62
2021/07/05 05:01:46;;;;;;;16.60;12.98;;;15.00;99.90;;;;;;5012397;28;25111;-63
2021/07/05 05:04:12;;;;;;;18.60;12.57;;;15.00;99.90;;;;;;5004145;28;25145;-62
2021/07/05 05:06:38;;;;;;;28.15;15.18;;;14.90;99.90;;;;;;5007941;28;25086;-63
2021/07/05 05:09:03;;;;;;;31.27;14.32;;;14.90;99.90;;;;;;5002872;28;25103;-62
2021/07/05 05:11:29;;;;;;;24.00;14.85;;;14.90;99.90;;;;;;4999690;28;25139;-62
2021/07/05 05:13:55;;;;;;;30.30;14.27;;;14.90;99.90;;;;;;4991426;28;25079;-64
2021/07/05 05:16:20;;;;;;;23.42;14.70;;;14.90;99.90;;;;;;4992744;28;25102;-62
2021/07/05 05:18:46;;;;;;;31.17;15.38;;;14.80;99.90;;;;;;4993483;28;25070;-63
2021/07/05 05:21:12;;;;;;;29.30;15.52;;;14.90;99.90;;;;;;4998658;28;25076;-63
2021/07/05 05:23:38;;;;;;;28.92;14.88;;;14.90;99.90;;;;;;4997549;28;25076;-62
2021/07/05 05:26:03;;;;;;;23.67;17.35;;;15.00;99.90;;;;;;4996838;28;25087;-63
2021/07/05 05:28:31;;;;;;;35.15;17.38;;;15.10;99.90;;;;;;4998386;28;25109;-64
2021/07/05 05:30:57;;;;;;;30.00;18.48;;;15.10;99.90;;;;;;4995127;28;25086;-64
2021/07/05 05:33:22;;;;;;;26.20;15.65;;;15.20;99.90;;;;;;4993994;28;25066;-63
2021/07/05 05:35:50;;;;;;;32.05;15.95;;;15.10;99.90;;;;;;4999203;28;25083;-63
2021/07/05 05:38:15;;;;;;;26.90;16.70;;;15.10;99.90;;;;;;5005811;28;25162;-63
2021/07/05 05:40:41;;;;;;;31.08;17.85;;;15.10;99.90;;;;;;5005817;28;25534;-64
2021/07/05 05:43:08;;;;;;;18.90;13.55;;;15.10;99.90;;;;;;5004303;28;25079;-62
2021/07/05 05:45:35;;;;;;;20.80;12.15;;;15.20;99.90;;;;;;4994905;28;25151;-63
2021/07/05 05:48:01;;;;;;;22.98;11.40;;;15.20;99.90;;;;;;4991529;28;25102;-63
2021/07/05 05:50:27;;;;;;;17.17;11.45;;;15.20;99.90;;;;;;5012122;28;25119;-63
2021/07/05 05:52:53;;;;;;;18.00;11.18;;;15.30;99.90;;;;;;5008393;28;25055;-62
2021/07/05 05:55:18;;;;;;;17.88;10.88;;;15.30;99.90;;;;;;5005977;28;25057;-64
2021/07/05 05:57:44;;;;;;;23.92;11.07;;;15.50;99.90;;;;;;5007138;28;25098;-63
2021/07/05 06:00:17;;;;;;;18.58;9.65;;;15.50;99.90;;;;;;5007304;28;25134;-60
2021/07/05 06:02:43;;;;;;;16.40;10.40;;;15.50;99.90;;;;;;4999683;28;25059;-63
2021/07/05 06:05:09;;;;;;;17.67;9.40;;;15.70;99.90;;;;;;5008753;28;25074;-63
2021/07/05 06:07:35;;;;;;;22.45;12.30;;;15.70;99.90;;;;;;5007873;28;25117;-63
2021/07/05 06:10:00;;;;;;;27.33;13.00;;;15.80;99.90;;;;;;4997576;28;25078;-62
2021/07/05 06:12:26;;;;;;;18.92;10.80;;;15.90;99.90;;;;;;5005483;28;25149;-63
2021/07/05 06:14:51;;;;;;;18.70;13.10;;;16.00;99.90;;;;;;5002285;28;25153;-62
2021/07/05 06:17:17;;;;;;;25.23;10.70;;;16.10;99.90;;;;;;4991024;28;25122;-63
2021/07/05 06:19:43;;;;;;;16.90;10.27;;;16.20;99.90;;;;;;4989040;28;25105;-62
2021/07/05 06:22:14;;;;;;;22.25;9.90;;;16.20;99.90;;;;;;5000962;28;25075;-63
2021/07/05 06:24:39;;;;;;;20.13;10.02;;;16.10;99.90;;;;;;5003258;28;25060;-62
2021/07/05 06:27:05;;;;;;;19.65;9.02;;;16.10;99.90;;;;;;4999900;28;25057;-61
2021/07/05 06:29:31;;;;;;;19.10;7.97;;;16.10;99.90;;;;;;5008679;28;25083;-63
2021/07/05 06:31:56;;;;;;;19.40;7.82;;;16.10;99.90;;;;;;5013080;28;25084;-62
2021/07/05 06:34:22;;;;;;;25.10;8.27;;;16.10;99.90;;;;;;5014844;28;25152;-64
2021/07/05 06:36:47;;;;;;;29.05;7.95;;;16.10;99.90;;;;;;5006713;28;25156;-63
2021/07/05 06:39:13;;;;;;;27.13;8.02;;;16.00;99.90;;;;;;4994092;28;25062;-62
2021/07/05 06:41:39;;;;;;;20.48;7.75;;;16.10;99.90;;;;;;5017517;28;25134;-62
2021/07/05 06:44:04;;;;;;;25.60;9.00;;;16.20;99.90;;;;;;5021672;28;25083;-63
2021/07/05 06:46:30;;;;;;;26.67;8.27;;;16.30;99.90;;;;;;5018221;28;25076;-62
2021/07/05 06:48:55;;;;;;;23.50;8.88;;;16.20;99.90;;;;;;5024355;28;25079;-61
2021/07/05 06:51:22;;;;;;;20.38;6.82;;;16.30;99.90;;;;;;5023016;28;25076;-63
2021/07/05 06:53:47;;;;;;;19.15;7.85;;;16.20;99.90;;;;;;5018577;28;25132;-62
2021/07/05 06:56:13;;;;;;;25.20;8.05;;;16.20;99.90;;;;;;5013679;28;25126;-63
2021/07/05 06:58:39;;;;;;;21.13;7.63;;;16.10;99.90;;;;;;5011669;28;25124;-64
2021/07/05 07:01:04;;;;;;;15.77;7.00;;;16.10;99.90;;;;;;5012449;28;25103;-62
2021/07/05 07:03:30;;;;;;;32.13;8.45;;;16.10;99.90;;;;;;5010365;28;25111;-63
2021/07/05 07:05:56;;;;;;;15.20;6.68;;;16.20;99.90;;;;;;5011507;28;25071;-62
2021/07/05 07:08:22;;;;;;;23.73;6.15;;;16.30;99.90;;;;;;5009628;28;25104;-63
2021/07/05 07:10:48;;;;;;;23.42;6.00;;;16.40;99.90;;;;;;5009301;28;25061;-63
2021/07/05 07:13:14;;;;;;;16.38;5.50;;;16.40;99.90;;;;;;5011338;28;25051;-63
2021/07/05 07:15:44;;;;;;;12.98;4.60;;;16.50;99.90;;;;;;5010684;28;25101;-62
2021/07/05 07:20:35;;;;;;;15.75;4.85;;;16.70;99.90;;;;;;5006519;28;25060;-62
2021/07/05 07:23:01;;;;;;;21.27;5.25;;;16.90;99.90;;;;;;5004859;28;25103;-64
2021/07/05 07:25:26;;;;;;;16.65;4.97;;;17.00;99.90;;;;;;5004225;28;25078;-63
2021/07/05 07:27:52;;;;;;;16.13;5.38;;;17.00;99.90;;;;;;4998684;28;25079;-63
2021/07/05 07:30:19;;;;;;;15.68;4.97;;;17.00;99.90;;;;;;5011441;28;25082;-63
2021/07/05 07:32:46;;;;;;;17.77;4.63;;;17.00;99.90;;;;;;5009169;28;25085;-64
2021/07/05 07:35:15;;;;;;;16.45;4.53;;;17.10;99.90;;;;;;5011220;28;25068;-64
2021/07/05 07:37:43;;;;;;;14.32;4.70;;;17.30;99.90;;;;;;5008340;28;25052;-63
2021/07/05 07:40:15;;;;;;;16.92;5.97;;;17.30;99.90;;;;;;4994964;28;25062;-63
2021/07/05 07:42:42;;;;;;;13.75;4.97;;;17.20;99.90;;;;;;4994396;28;25075;-63
2021/07/05 07:45:09;;;;;;;20.60;5.20;;;17.20;99.90;;;;;;5007548;28;25146;-62
2021/07/05 07:47:34;;;;;;;17.52;5.15;;;17.10;99.90;;;;;;5003908;28;25085;-67
2021/07/05 07:50:02;;;;;;;14.63;4.93;;;17.20;99.90;;;;;;4998908;28;25086;-64
2021/07/05 07:52:28;;;;;;;15.02;5.18;;;17.20;99.90;;;;;;5009230;28;25059;-64
2021/07/05 07:54:54;;;;;;;11.27;4.88;;;17.20;99.90;;;;;;5010371;28;25106;-63
2021/07/05 07:57:19;;;;;;;16.30;5.85;;;17.20;99.90;;;;;;4998345;28;25076;-62
2021/07/05 07:59:46;;;;;;;14.32;4.65;;;17.20;99.90;;;;;;5010827;28;25084;-63
2021/07/05 08:02:12;;;;;;;13.57;6.07;;;17.30;99.90;;;;;;5012280;28;25074;-63
2021/07/05 08:04:38;;;;;;;19.95;5.72;;;17.40;99.90;;;;;;5023166;28;25103;-63
2021/07/05 08:07:04;;;;;;;14.13;5.65;;;17.50;99.90;;;;;;5016664;28;25057;-63
2021/07/05 08:09:30;;;;;;;13.43;5.88;;;17.50;99.90;;;;;;5017372;28;25055;-64
2021/07/05 08:11:56;;;;;;;16.05;6.57;;;17.60;99.90;;;;;;5017843;28;25089;-63
2021/07/05 08:14:21;;;;;;;13.15;5.93;;;17.70;99.90;;;;;;5022415;28;25061;-62
2021/07/05 08:16:47;;;;;;;19.27;6.05;;;17.70;99.90;;;;;;5007580;28;25114;-63
2021/07/05 08:19:13;;;;;;;19.38;4.78;;;17.80;99.90;;;;;;5011535;28;25145;-63
2021/07/05 08:21:38;;;;;;;12.23;4.85;;;17.80;99.90;;;;;;5017856;28;25104;-64
2021/07/05 08:24:05;;;;;;;16.40;5.78;;;17.80;99.90;;;;;;5018313;28;25073;-62
2021/07/05 08:26:31;;;;;;;14.07;5.40;;;17.90;99.90;;;;;;5008318;28;25088;-62
2021/07/05 08:28:56;;;;;;;9.70;4.90;;;17.90;99.90;;;;;;5005956;28;25056;-64
2021/07/05 08:31:22;;;;;;;8.90;5.00;;;17.90;99.90;;;;;;5013029;28;25075;-64
2021/07/05 08:33:50;;;;;;;14.07;5.68;;;17.80;99.90;;;;;;5010217;28;25067;-66
2021/07/05 08:36:16;;;;;;;9.00;5.43;;;17.80;99.90;;;;;;5012487;28;25143;-63
2021/07/05 08:38:42;;;;;;;14.07;5.57;;;18.00;99.90;;;;;;5012125;28;25118;-63
2021/07/05 08:41:07;;;;;;;16.73;5.53;;;18.20;99.90;;;;;;5011247;28;25133;-65
2021/07/05 08:43:33;;;;;;;10.85;4.72;;;18.40;99.90;;;;;;5008903;28;25071;-64
2021/07/05 08:46:03;;;;;;;9.82;4.90;;;18.30;99.90;;;;;;5002461;28;25116;-64
2021/07/05 08:48:33;;;;;;;15.73;5.50;;;18.20;99.90;;;;;;5008262;28;25087;-63
2021/07/05 08:51:00;;;;;;;14.95;6.40;;;18.30;99.90;;;;;;5009857;28;25070;-64
2021/07/05 08:53:27;;;;;;;16.08;7.00;;;18.30;99.90;;;;;;5007991;28;25069;-63
2021/07/05 08:55:52;;;;;;;16.33;6.43;;;18.10;99.90;;;;;;5008865;28;25106;-63
2021/07/05 08:58:18;;;;;;;17.33;7.20;;;18.10;99.90;;;;;;5009437;28;25087;-63
2021/07/05 09:00:44;;;;;;;15.35;6.38;;;18.10;99.90;;;;;;5009464;28;25141;-62
2021/07/05 09:03:09;;;;;;;18.08;7.72;;;18.00;99.90;;;;;;5008744;28;25078;-63
2021/07/05 09:05:35;;;;;;;17.88;6.18;;;17.90;99.90;;;;;;5008246;28;25132;-63
2021/07/05 09:08:05;;;;;;;11.52;6.22;;;18.00;99.90;;;;;;5008411;28;25129;-62
2021/07/05 09:10:55;;;;;;;17.80;6.55;;;18.10;99.90;;;;;;5007255;28;25130;-62
2021/07/05 09:13:24;;;;;;;19.38;6.20;;;18.10;99.90;;;;;;5009111;28;25131;-62
2021/07/05 09:15:50;;;;;;;12.23;5.30;;;18.20;99.90;;;;;;5008645;28;25055;-62
2021/07/05 09:18:37;;;;;;;12.50;4.95;;;18.10;99.90;;;;;;4997419;28;25118;-63
2021/07/05 09:21:26;;;;;;;18.83;5.20;;;18.20;99.90;;;;;;5007341;28;25125;-63
2021/07/05 09:24:01;;;;;;;13.80;4.50;;;18.30;99.90;;;;;;5010958;28;25066;-62
2021/07/05 09:26:33;;;;;;;12.63;4.28;;;18.10;99.90;;;;;;5008840;28;25135;-63
2021/07/05 09:29:21;;;;;;;15.20;4.57;;;18.00;99.90;;;;;;5009059;28;25076;-63
2021/07/05 09:31:52;;;;;;;11.68;4.18;;;18.20;99.90;;;;;;4998748;28;25093;-64
2021/07/05 09:34:31;;;;;;;13.23;3.80;;;18.40;99.90;;;;;;4997909;28;25133;-62
2021/07/05 09:39:38;;;;;;;9.88;3.90;;;18.50;99.90;;;;;;5043096;28;25062;-65
2021/07/05 09:42:10;;;;;;;9.95;3.70;;;18.50;99.90;;;;;;5047879;28;25111;-65
2021/07/05 09:44:41;;;;;;;11.75;3.85;;;18.40;99.90;;;;;;5047567;28;25082;-66
2021/07/05 09:47:17;;;;;;;10.02;4.13;;;18.40;99.90;;;;;;5030311;28;25153;-66
2021/07/05 09:49:44;;;;;;;12.73;4.28;;;18.30;99.90;;;;;;5026669;28;25129;-67
2021/07/05 09:52:24;;;;;;;8.48;3.78;;;18.20;99.90;;;;;;5041271;28;25149;-66
2021/07/05 09:55:06;;;;;;;17.27;4.85;;;18.10;99.90;;;;;;5029337;28;25065;-65
2021/07/05 09:57:40;;;;;;;17.88;5.50;;;17.90;99.90;;;;;;5028808;28;25133;-66
2021/07/05 10:00:06;;;;;;;17.30;5.55;;;17.70;99.90;;;;;;5041375;28;25083;-67
2021/07/05 10:02:33;;;;;;;9.48;4.05;;;17.80;99.90;;;;;;5036558;28;25062;-67
2021/07/05 10:05:16;;;;;;;18.77;5.10;;;17.70;99.90;;;;;;5043627;28;25058;-66
2021/07/05 10:07:42;;;;;;;12.98;4.53;;;17.80;99.90;;;;;;5054630;28;25145;-66
2021/07/05 10:10:13;;;;;;;12.52;4.65;;;17.70;99.90;;;;;;5046039;28;25086;-65
2021/07/05 10:12:39;;;;;;;16.30;4.68;;;17.60;99.90;;;;;;5037449;28;25091;-66
2021/07/05 10:15:10;;;;;;;10.15;4.30;;;17.50;99.90;;;;;;5038504;28;25131;-66
2021/07/05 10:17:42;;;;;;;20.58;5.47;;;17.60;99.90;;;;;;5043451;28;25085;-66
2021/07/05 10:20:16;;;;;;;16.02;5.03;;;17.70;99.90;;;;;;5039836;28;25055;-64
2021/07/05 10:22:43;;;;;;;15.57;4.68;;;17.60;99.90;;;;;;5028429;28;25155;-67
2021/07/05 10:25:10;;;;;;;12.80;4.80;;;17.40;99.90;;;;;;5028844;28;25095;-67
2021/07/05 10:27:36;;;;;;;11.48;4.45;;;17.20;99.90;;;;;;5042156;28;25060;-66
2021/07/05 10:30:04;;;;;;;11.52;4.70;;;17.10;99.90;;;;;;5029144;28;25103;-65
2021/07/05 10:32:30;;;;;;;14.85;5.22;;;16.90;99.90;;;;;;5029728;28;25065;-65
2021/07/05 10:34:56;;;;;;;10.95;5.40;;;16.80;99.90;;;;;;5045503;28;25078;-65
2021/07/05 10:37:38;;;;;;;10.75;5.32;;;16.70;99.90;;;;;;5045819;28;25075;-64
2021/07/05 10:40:06;;;;;;;20.63;5.88;;;16.70;99.90;;;;;;5033119;28;25070;-62
2021/07/05 10:42:35;;;;;;;10.65;5.35;;;16.80;99.90;;;;;;5045770;28;25178;-63
2021/07/05 10:45:03;;;;;;;14.40;7.53;;;16.80;99.90;;;;;;5037742;28;25103;-64
2021/07/05 10:47:48;;;;;;;14.00;6.60;;;16.80;99.90;;;;;;5036950;28;25149;-65
2021/07/05 10:50:42;;;;;;;15.48;7.00;;;16.80;99.90;;;;;;5044806;28;25059;-64
2021/07/05 10:53:09;;;;;;;21.70;8.38;;;16.80;99.90;;;;;;5033665;28;25072;-64
2021/07/05 10:55:51;;;;;;;14.85;7.97;;;17.00;99.90;;;;;;5027597;28;25164;-64
2021/07/05 10:58:28;;;;;;;14.98;7.55;;;17.20;99.90;;;;;;5026830;28;25121;-63
2021/07/05 11:00:56;;;;;;;12.27;8.65;;;17.10;99.90;;;;;;5027576;28;25064;-64
2021/07/05 11:03:40;;;;;;;12.85;8.18;;;17.20;99.90;;;;;;5027859;28;25156;-63
2021/07/05 11:06:29;;;;;;;13.70;6.68;;;17.40;99.90;;;;;;5035196;28;25096;-63
2021/07/05 11:08:55;;;;;;;15.18;7.38;;;17.30;99.90;;;;;;5035878;28;25084;-64
2021/07/05 11:11:28;;;;;;;13.02;6.07;;;17.40;99.90;;;;;;5030021;28;25131;-65
2021/07/05 11:14:17;;;;;;;11.20;5.75;;;17.40;99.90;;;;;;5027757;28;25141;-64
2021/07/05 11:16:52;;;;;;;14.05;7.30;;;17.40;99.90;;;;;;5028381;28;25108;-64
2021/07/05 11:19:40;;;;;;;12.20;6.57;;;17.60;99.90;;;;;;5030170;28;25089;-65
2021/07/05 11:22:34;;;;;;;14.40;5.68;;;17.60;99.90;;;;;;5031940;28;25062;-64
2021/07/05 11:25:21;;;;;;;9.85;5.78;;;17.80;99.90;;;;;;5031418;28;25050;-65
2021/07/05 11:27:52;;;;;;;7.13;5.82;;;17.70;99.90;;;;;;5052142;28;25061;-64
2021/07/05 11:30:20;;;;;;;8.93;5.18;;;17.60;99.90;;;;;;5041375;28;25045;-67
2021/07/05 11:33:11;;;;;;;5.97;5.15;;;17.50;99.90;;;;;;5049066;28;25065;-65
2021/07/05 11:36:01;;;;;;;6.60;5.63;;;17.60;99.90;;;;;;5042918;28;25086;-65
2021/07/05 11:38:28;;;;;;;11.93;5.15;;;17.70;99.90;;;;;;5029158;28;25093;-64
2021/07/05 11:41:14;;;;;;;6.55;5.78;;;17.60;99.90;;;;;;5030169;28;25064;-64
2021/07/05 11:43:42;;;;;;;6.35;4.32;;;17.90;99.90;;;;;;5041304;28;25075;-64
2021/07/05 11:46:09;;;;;;;5.55;4.40;;;18.10;99.90;;;;;;5041123;28;25058;-65
2021/07/05 11:48:40;;;;;;;5.88;4.25;;;18.20;99.90;;;;;;5032185;28;25079;-65
2021/07/05 11:51:36;;;;;;;9.88;4.57;;;18.20;99.90;;;;;;5049186;28;25132;-64
2021/07/05 11:54:10;;;;;;;4.47;4.00;;;18.50;99.90;;;;;;5032115;28;25069;-64
2021/07/05 11:57:05;;;;;;;3.70;3.40;;;18.80;99.90;;;;;;5047161;28;25074;-65
2021/07/05 11:59:36;;;;;;;4.57;3.65;;;19.00;99.90;;;;;;5041307;28;25145;-66
2021/07/05 12:02:03;;;;;;;3.75;3.35;;;18.70;99.90;;;;;;5038693;28;25085;-66
2021/07/05 12:04:35;;;;;;;2.70;2.50;;;18.80;99.90;;;;;;5047323;28;25083;-66
2021/07/05 12:07:04;;;;;;;4.13;2.30;;;18.90;99.90;;;;;;5056830;28;25126;-68
2021/07/05 12:09:34;;;;;;;2.30;2.03;;;19.00;99.90;;;;;;5048864;28;25061;-67
2021/07/05 12:12:09;;;;;;;3.33;2.53;;;19.20;99.90;;;;;;5045504;28;25102;-69
2021/07/05 12:14:38;;;;;;;1.70;1.60;;;19.60;99.90;;;;;;5039835;28;25086;-65
2021/07/05 12:17:14;;;;;;;3.95;1.80;;;19.80;99.90;;;;;;5037470;28;25069;-66
2021/07/05 12:19:42;;;;;;;3.40;2.33;;;19.70;99.90;;;;;;5048977;28;25056;-66
2021/07/05 12:22:17;;;;;;;5.93;2.05;;;19.80;99.90;;;;;;5041063;28;25138;-65
2021/07/05 12:24:45;;;;;;;4.72;2.47;;;19.80;99.90;;;;;;5031565;28;25072;-66
2021/07/05 12:27:14;;;;;;;6.25;2.97;;;19.50;99.90;;;;;;5028271;28;25080;-65
2021/07/05 12:29:45;;;;;;;3.28;2.65;;;19.20;99.90;;;;;;5030672;28;25154;-66
2021/07/05 12:32:17;;;;;;;3.85;2.22;;;19.20;99.90;;;;;;5050327;28;25108;-66
2021/07/05 12:34:45;;;;;;;;;;;19.20;99.90;;;;;;5034709;28;25157;-64
2021/07/05 12:37:17;;;;;;;4.00;1.88;;;19.20;99.90;;;;;;5036493;28;24052;-66
2021/07/05 12:39:58;;;;;;;;;;;19.00;99.90;;;;;;5045887;28;25076;-65
2021/07/05 12:42:33;;;;;;;2.00;1.90;;;18.60;99.90;;;;;;5039512;28;24150;-67
2021/07/05 12:45:00;;;;;;;4.03;2.20;;;18.60;99.90;;;;;;5034881;28;25094;-65
2021/07/05 12:47:27;;;;;;;5.88;3.15;;;18.50;99.90;;;;;;5039393;28;25136;-66